Terminal Aerodrome Forecast
Issued by NWS

Home | Current Version | Previous Version | Text Only | Print | Product List | Glossary On
Versions: 1 2 3 4 5 6 7 8 9 10 11 12 13 14 15 16 17 18 19 20 21 22 23 24 25 26 27 28 29 30 31 32 33 34 35 36 37 38 39 40 41 42 43 44 45 46 47
000
FTAK31 PAFA 010206 AAB
TAFABT
TAF AMD
PABT 010206Z 0102/0124 25012G21KT 2SM FU FEW015 BKN050
     FM010900 20005KT 4SM FU SCT050 BKN120
     FM011500 17006KT 5SM -SHRA FU OVC050=

USA.gov is the U.S. government's official web portal to all federal, state and local government web resources and services.